Time;durP1;ratioP1;P1;durP2;ratioP2;P2;SDS_P1;SDS_P2;PMS_P1;PMS_P2;Temp;Humidity;BMP_temperature;BMP_pressure;BME280_temperature;BME280_humidity;BME280_pressure;Samples;Min_cycle;Max_cycle;Signal;HPM_P1;HPM_P2
2024/01/05 00:00:06;;;;;;;21.08;5.07;;;;;;;;;;5091759;28;20256;-63
2024/01/05 00:02:35;;;;;;;8.40;5.00;;;;;;;;;;5083231;28;20198;-64
2024/01/05 00:05:03;;;;;;;11.23;4.40;;;;;;;;;;5093046;28;20205;-63
2024/01/05 00:07:32;;;;;;;16.33;4.82;;;;;;;;;;5092725;28;20638;-63
2024/01/05 00:10:01;;;;;;;11.23;4.25;;;;;;;;;;5093111;28;20276;-64
2024/01/05 00:12:29;;;;;;;12.38;4.55;;;;;;;;;;5092817;28;20560;-64
2024/01/05 00:14:58;;;;;;;10.98;4.35;;;;;;;;;;5091845;28;20210;-65
2024/01/05 00:17:26;;;;;;;12.85;4.60;;;;;;;;;;5093012;28;20218;-63
2024/01/05 00:19:55;;;;;;;12.30;4.35;;;;;;;;;;5089187;28;20199;-63
2024/01/05 00:22:23;;;;;;;17.25;5.30;;;;;;;;;;5092491;28;20202;-64
2024/01/05 00:24:51;;;;;;;9.55;4.95;;;;;;;;;;5092378;28;20207;-63
2024/01/05 00:27:19;;;;;;;10.77;5.47;;;;;;;;;;5093307;28;20203;-63
2024/01/05 00:29:47;;;;;;;16.10;5.72;;;;;;;;;;5075148;28;20221;-63
2024/01/05 00:32:17;;;;;;;10.00;4.88;;;;;;;;;;5091737;28;20215;-63
2024/01/05 00:34:46;;;;;;;12.70;5.93;;;;;;;;;;5091678;28;20195;-63
2024/01/05 00:37:15;;;;;;;12.13;5.28;;;;;;;;;;5092232;28;20199;-63
2024/01/05 00:39:43;;;;;;;15.00;5.78;;;;;;;;;;5092348;28;20678;-64
2024/01/05 00:42:11;;;;;;;12.10;5.10;;;;;;;;;;5091458;28;20231;-64
2024/01/05 00:44:41;;;;;;;21.30;5.50;;;;;;;;;;5073355;28;20261;-63
2024/01/05 00:47:09;;;;;;;12.95;6.25;;;;;;;;;;5092334;28;20582;-63
2024/01/05 00:49:39;;;;;;;13.82;5.47;;;;;;;;;;5074675;28;20225;-63
2024/01/05 00:52:07;;;;;;;12.07;6.05;;;;;;;;;;5092526;28;20245;-63
2024/01/05 00:54:35;;;;;;;16.70;6.03;;;;;;;;;;5074912;28;20195;-65
2024/01/05 00:57:03;;;;;;;14.10;6.18;;;;;;;;;;5092668;28;20687;-63
2024/01/05 00:59:32;;;;;;;10.23;5.70;;;;;;;;;;5089921;28;20213;-65
2024/01/05 01:02:00;;;;;;;17.67;6.80;;;;;;;;;;5090665;28;20203;-64
2024/01/05 01:04:28;;;;;;;10.93;5.78;;;;;;;;;;5090295;28;20760;-64
2024/01/05 01:06:57;;;;;;;13.02;7.80;;;;;;;;;;5089836;28;20199;-64
2024/01/05 01:09:26;;;;;;;9.27;5.15;;;;;;;;;;5090044;28;20214;-64
2024/01/05 01:11:54;;;;;;;14.43;5.82;;;;;;;;;;5074859;28;20207;-63
2024/01/05 01:14:22;;;;;;;13.95;5.32;;;;;;;;;;5090887;28;20863;-63
2024/01/05 01:16:51;;;;;;;13.35;4.75;;;;;;;;;;5091414;28;20204;-64
2024/01/05 01:19:19;;;;;;;11.95;5.28;;;;;;;;;;5091428;28;20207;-63
2024/01/05 01:21:47;;;;;;;15.23;4.82;;;;;;;;;;5091100;28;20199;-63
2024/01/05 01:24:17;;;;;;;11.75;5.95;;;;;;;;;;5092054;28;20191;-64
2024/01/05 01:26:45;;;;;;;24.60;6.80;;;;;;;;;;5090948;28;20218;-65
2024/01/05 01:29:13;;;;;;;12.73;4.78;;;;;;;;;;5090401;28;20206;-64
2024/01/05 01:31:41;;;;;;;15.18;5.43;;;;;;;;;;5091607;28;20223;-64
2024/01/05 01:34:09;;;;;;;13.40;4.72;;;;;;;;;;5091887;28;20195;-64
2024/01/05 01:36:38;;;;;;;13.57;6.05;;;;;;;;;;5091735;28;20543;-64
2024/01/05 01:39:06;;;;;;;7.05;4.60;;;;;;;;;;5075579;28;20213;-63
2024/01/05 01:41:35;;;;;;;12.13;5.10;;;;;;;;;;5090400;28;20279;-63
2024/01/05 01:44:04;;;;;;;18.83;5.32;;;;;;;;;;5089289;28;20222;-63
2024/01/05 01:46:33;;;;;;;13.15;5.55;;;;;;;;;;5090215;28;20204;-65
2024/01/05 01:49:01;;;;;;;15.43;6.25;;;;;;;;;;5090735;28;20209;-64
2024/01/05 01:51:31;;;;;;;12.15;5.38;;;;;;;;;;5090696;28;20223;-64
2024/01/05 01:54:03;;;;;;;14.98;5.78;;;;;;;;;;5090257;28;20203;-63
2024/01/05 01:56:31;;;;;;;11.18;4.72;;;;;;;;;;5090386;28;20202;-64
2024/01/05 01:59:01;;;;;;;9.93;5.05;;;;;;;;;;5090338;28;20195;-64
2024/01/05 02:01:29;;;;;;;6.03;4.13;;;;;;;;;;5090699;28;20201;-64
2024/01/05 02:03:57;;;;;;;17.58;5.65;;;;;;;;;;5071742;28;20199;-63
2024/01/05 02:06:26;;;;;;;9.82;5.25;;;;;;;;;;5090415;28;20209;-64
2024/01/05 02:08:54;;;;;;;14.43;4.60;;;;;;;;;;5090106;28;20190;-63
2024/01/05 02:11:22;;;;;;;14.15;5.00;;;;;;;;;;5073211;28;20229;-65
2024/01/05 02:13:51;;;;;;;7.35;4.18;;;;;;;;;;5091605;28;20207;-65
2024/01/05 02:16:20;;;;;;;9.93;5.05;;;;;;;;;;5090584;28;20195;-63
2024/01/05 02:19:08;;;;;;;13.00;5.38;;;;;;;;;;5074000;28;20565;-65
2024/01/05 02:21:39;;;;;;;15.43;5.10;;;;;;;;;;5090841;28;20203;-64
2024/01/05 02:24:09;;;;;;;9.65;4.32;;;;;;;;;;5091537;28;20195;-64
2024/01/05 02:26:37;;;;;;;15.25;5.28;;;;;;;;;;5073182;28;20199;-63
2024/01/05 02:29:05;;;;;;;15.48;5.32;;;;;;;;;;5090836;28;20198;-63
2024/01/05 02:31:33;;;;;;;26.33;5.82;;;;;;;;;;5056392;28;20690;-64
2024/01/05 02:34:01;;;;;;;9.82;4.80;;;;;;;;;;5091357;28;20207;-64
2024/01/05 02:36:30;;;;;;;8.93;4.65;;;;;;;;;;5090154;28;20208;-63
2024/01/05 02:38:58;;;;;;;8.68;4.25;;;;;;;;;;5073328;28;20261;-63
2024/01/05 02:41:28;;;;;;;14.32;5.15;;;;;;;;;;5076663;28;20264;-64
2024/01/05 02:43:56;;;;;;;7.53;4.35;;;;;;;;;;5086787;28;20283;-64
2024/01/05 02:46:24;;;;;;;7.38;3.97;;;;;;;;;;5088659;28;20207;-63
2024/01/05 02:48:52;;;;;;;8.20;4.78;;;;;;;;;;5091220;28;20203;-64
2024/01/05 02:51:21;;;;;;;13.63;5.00;;;;;;;;;;5092449;28;20670;-64
2024/01/05 02:53:49;;;;;;;8.48;4.40;;;;;;;;;;5094964;28;20199;-63
2024/01/05 02:56:21;;;;;;;12.13;4.78;;;;;;;;;;5094537;28;20207;-64
2024/01/05 02:58:50;;;;;;;8.73;4.10;;;;;;;;;;5094701;28;20630;-63
2024/01/05 03:01:18;;;;;;;13.00;5.10;;;;;;;;;;5093686;28;20577;-65
2024/01/05 03:03:47;;;;;;;9.27;4.70;;;;;;;;;;5092951;28;20890;-64
2024/01/05 03:06:16;;;;;;;19.23;5.15;;;;;;;;;;5093294;28;20226;-64
2024/01/05 03:08:45;;;;;;;8.82;5.03;;;;;;;;;;5093612;28;20203;-64
2024/01/05 03:11:14;;;;;;;12.63;6.30;;;;;;;;;;5093613;28;20199;-63
2024/01/05 03:13:42;;;;;;;12.32;5.30;;;;;;;;;;5093821;28;20221;-64
2024/01/05 03:16:12;;;;;;;8.00;4.80;;;;;;;;;;5093482;28;20205;-64
2024/01/05 03:18:40;;;;;;;11.85;4.28;;;;;;;;;;5076338;28;20210;-63
2024/01/05 03:21:08;;;;;;;15.13;4.72;;;;;;;;;;5075390;28;20203;-64
2024/01/05 03:23:37;;;;;;;16.08;6.65;;;;;;;;;;5076218;28;20689;-63
2024/01/05 03:26:09;;;;;;;13.57;6.53;;;;;;;;;;5075506;28;20191;-64
2024/01/05 03:28:38;;;;;;;12.50;6.25;;;;;;;;;;5093449;28;20240;-63
2024/01/05 03:31:06;;;;;;;15.10;6.18;;;;;;;;;;5093275;28;20232;-64
2024/01/05 03:33:36;;;;;;;10.77;5.80;;;;;;;;;;5094140;28;20241;-63
2024/01/05 03:36:04;;;;;;;19.63;7.15;;;;;;;;;;5093182;28;20192;-65
2024/01/05 03:38:32;;;;;;;19.92;6.13;;;;;;;;;;5093824;28;20207;-64
2024/01/05 03:41:00;;;;;;;13.75;5.80;;;;;;;;;;5071389;28;20228;-64
2024/01/05 03:43:30;;;;;;;17.92;6.47;;;;;;;;;;5073551;28;20487;-64
2024/01/05 03:45:58;;;;;;;12.35;5.40;;;;;;;;;;5071117;28;20208;-63
2024/01/05 03:48:27;;;;;;;12.10;5.65;;;;;;;;;;5072997;28;20210;-65
2024/01/05 03:50:56;;;;;;;11.63;5.10;;;;;;;;;;5073096;28;20196;-63
2024/01/05 03:53:24;;;;;;;20.50;5.97;;;;;;;;;;5072861;28;20223;-63
2024/01/05 03:55:52;;;;;;;16.98;6.05;;;;;;;;;;5073256;28;20203;-64
2024/01/05 03:58:21;;;;;;;12.43;5.65;;;;;;;;;;5073005;28;20567;-65
2024/01/05 04:00:49;;;;;;;12.48;5.20;;;;;;;;;;5071789;28;20250;-64
2024/01/05 04:03:17;;;;;;;12.18;5.00;;;;;;;;;;5070351;28;20202;-63
2024/01/05 04:05:46;;;;;;;10.15;3.75;;;;;;;;;;5071835;28;20196;-64
2024/01/05 04:08:15;;;;;;;14.13;4.97;;;;;;;;;;5070262;28;20196;-64
2024/01/05 04:10:43;;;;;;;5.95;4.68;;;;;;;;;;5072638;28;20256;-64
2024/01/05 04:13:12;;;;;;;7.53;4.38;;;;;;;;;;5071111;28;20982;-64
2024/01/05 04:15:40;;;;;;;7.78;4.05;;;;;;;;;;5071722;28;20204;-63
2024/01/05 04:18:09;;;;;;;15.13;4.97;;;;;;;;;;5069596;28;20691;-64
2024/01/05 04:20:37;;;;;;;9.15;4.45;;;;;;;;;;5068900;28;20204;-64
2024/01/05 04:23:05;;;;;;;14.10;3.53;;;;;;;;;;5069552;28;20560;-63
2024/01/05 04:25:35;;;;;;;14.82;5.25;;;;;;;;;;5070541;28;20202;-64
2024/01/05 04:28:03;;;;;;;8.82;3.90;;;;;;;;;;5069494;28;20208;-64
2024/01/05 04:30:31;;;;;;;5.35;3.40;;;;;;;;;;5068694;28;20264;-64
2024/01/05 04:32:59;;;;;;;11.15;3.40;;;;;;;;;;5068204;28;20223;-65
2024/01/05 04:35:27;;;;;;;8.13;3.55;;;;;;;;;;5071909;28;20208;-63
2024/01/05 04:37:56;;;;;;;5.45;3.30;;;;;;;;;;5070763;28;20566;-64
2024/01/05 04:40:24;;;;;;;8.63;4.13;;;;;;;;;;5074289;28;20239;-63
2024/01/05 04:42:54;;;;;;;16.38;4.45;;;;;;;;;;5081312;28;20199;-63
2024/01/05 04:45:22;;;;;;;14.20;3.45;;;;;;;;;;5079040;28;20223;-64
2024/01/05 04:47:52;;;;;;;9.50;3.58;;;;;;;;;;5064662;28;20208;-63
2024/01/05 04:50:20;;;;;;;8.93;3.70;;;;;;;;;;5083744;28;20556;-63
2024/01/05 04:52:48;;;;;;;12.45;3.92;;;;;;;;;;5087089;28;20701;-64
2024/01/05 04:55:16;;;;;;;15.00;4.43;;;;;;;;;;5091272;28;20195;-64
2024/01/05 04:57:45;;;;;;;9.63;3.20;;;;;;;;;;5091865;28;20199;-63
2024/01/05 05:00:15;;;;;;;5.15;3.72;;;;;;;;;;5090617;28;20203;-64
2024/01/05 05:02:43;;;;;;;14.85;4.13;;;;;;;;;;5102175;28;20216;-67
2024/01/05 05:05:11;;;;;;;8.23;3.78;;;;;;;;;;5094456;28;20661;-64
2024/01/05 05:07:40;;;;;;;13.32;4.10;;;;;;;;;;5065330;28;20199;-64
2024/01/05 05:10:08;;;;;;;5.10;3.55;;;;;;;;;;5081589;28;20199;-63
2024/01/05 05:12:37;;;;;;;13.48;3.50;;;;;;;;;;5073954;28;20195;-63
2024/01/05 05:15:05;;;;;;;5.60;3.47;;;;;;;;;;5070798;28;20206;-64
2024/01/05 05:17:35;;;;;;;9.10;4.82;;;;;;;;;;5070974;28;20226;-63
2024/01/05 05:20:05;;;;;;;7.97;3.35;;;;;;;;;;5090944;28;20248;-64
2024/01/05 05:22:33;;;;;;;8.35;3.65;;;;;;;;;;5087752;28;20191;-63
2024/01/05 05:25:02;;;;;;;5.00;2.83;;;;;;;;;;5057152;28;20214;-64
2024/01/05 05:27:31;;;;;;;7.25;4.03;;;;;;;;;;5092017;28;20211;-63
2024/01/05 05:30:00;;;;;;;6.90;3.83;;;;;;;;;;5083623;28;20204;-64
2024/01/05 05:32:28;;;;;;;9.88;3.72;;;;;;;;;;5072490;28;20226;-64
2024/01/05 05:34:59;;;;;;;11.02;4.55;;;;;;;;;;5053866;28;20208;-64
2024/01/05 05:37:27;;;;;;;6.45;3.00;;;;;;;;;;5083804;28;20554;-64
2024/01/05 05:39:55;;;;;;;6.75;4.07;;;;;;;;;;5079710;28;20652;-64
2024/01/05 05:42:23;;;;;;;10.27;3.55;;;;;;;;;;5061632;28;20539;-69
2024/01/05 05:44:51;;;;;;;9.90;3.20;;;;;;;;;;5061350;28;20215;-68
2024/01/05 05:47:20;;;;;;;5.72;3.60;;;;;;;;;;5057251;28;20684;-69
2024/01/05 05:49:48;;;;;;;15.48;3.42;;;;;;;;;;5064522;28;20204;-68
2024/01/05 05:52:17;;;;;;;10.57;4.22;;;;;;;;;;5068974;28;20230;-69
2024/01/05 05:54:46;;;;;;;18.05;3.72;;;;;;;;;;5070581;28;20230;-68
2024/01/05 05:57:14;;;;;;;7.07;3.38;;;;;;;;;;5058055;28;20256;-68
2024/01/05 05:59:42;;;;;;;39.30;21.13;;;;;;;;;;5049187;28;20200;-69
2024/01/05 06:02:11;;;;;;;14.85;8.45;;;;;;;;;;5056655;28;20211;-67
2024/01/05 06:04:39;;;;;;;11.63;4.88;;;;;;;;;;5053307;28;20200;-69
2024/01/05 06:07:07;;;;;;;6.47;3.80;;;;;;;;;;5064761;28;20644;-69
2024/01/05 06:09:37;;;;;;;16.85;3.83;;;;;;;;;;5054384;28;20260;-69
2024/01/05 06:12:05;;;;;;;6.28;3.33;;;;;;;;;;5070169;28;20204;-68
2024/01/05 06:14:34;;;;;;;7.95;3.67;;;;;;;;;;5052524;28;20296;-69
2024/01/05 06:17:02;;;;;;;9.27;3.80;;;;;;;;;;5064323;28;20200;-69
2024/01/05 06:19:30;;;;;;;8.20;3.83;;;;;;;;;;5070722;28;20196;-69
2024/01/05 06:21:59;;;;;;;11.45;4.07;;;;;;;;;;5059242;28;20208;-68
2024/01/05 06:24:28;;;;;;;13.63;4.80;;;;;;;;;;5055833;28;20236;-69
2024/01/05 06:26:58;;;;;;;4.38;3.35;;;;;;;;;;5055561;28;20212;-68
2024/01/05 06:29:26;;;;;;;8.73;4.40;;;;;;;;;;5058809;28;20192;-69
2024/01/05 06:31:54;;;;;;;10.45;4.05;;;;;;;;;;5071239;28;20196;-69
2024/01/05 06:34:22;;;;;;;15.15;4.68;;;;;;;;;;5065733;28;20220;-69
2024/01/05 06:36:51;;;;;;;14.32;4.00;;;;;;;;;;5065642;28;20751;-68
2024/01/05 06:39:19;;;;;;;9.68;3.58;;;;;;;;;;5070246;28;20212;-69
2024/01/05 06:41:47;;;;;;;6.68;3.42;;;;;;;;;;5088616;28;20242;-68
2024/01/05 06:44:17;;;;;;;11.45;3.50;;;;;;;;;;5087153;28;20697;-68
2024/01/05 06:46:45;;;;;;;11.60;4.50;;;;;;;;;;5093115;28;20207;-69
2024/01/05 06:49:13;;;;;;;4.68;3.45;;;;;;;;;;5093448;28;20696;-69
2024/01/05 06:51:41;;;;;;;8.45;3.10;;;;;;;;;;5074267;28;20203;-68
2024/01/05 06:54:11;;;;;;;6.00;3.20;;;;;;;;;;5093300;28;20225;-70
2024/01/05 06:56:42;;;;;;;4.97;3.45;;;;;;;;;;5093236;28;20204;-69
2024/01/05 06:59:10;;;;;;;12.88;4.78;;;;;;;;;;5094058;28;20194;-68
2024/01/05 07:01:40;;;;;;;13.18;3.58;;;;;;;;;;5091859;28;20203;-69
2024/01/05 07:04:08;;;;;;;6.53;4.28;;;;;;;;;;5092209;28;20536;-68
2024/01/05 07:06:41;;;;;;;10.57;6.22;;;;;;;;;;5073383;28;20199;-68
2024/01/05 07:09:09;;;;;;;17.15;5.68;;;;;;;;;;5093669;28;20228;-69
2024/01/05 07:11:38;;;;;;;9.35;3.97;;;;;;;;;;5092848;28;20219;-69
2024/01/05 07:14:06;;;;;;;9.85;4.82;;;;;;;;;;5093414;28;21101;-68
2024/01/05 07:16:34;;;;;;;12.27;7.78;;;;;;;;;;5091819;28;20207;-67
2024/01/05 07:19:04;;;;;;;9.80;7.47;;;;;;;;;;5092759;28;20199;-66
2024/01/05 07:21:33;;;;;;;10.00;4.40;;;;;;;;;;5073725;28;20195;-66
2024/01/05 07:24:02;;;;;;;7.93;4.72;;;;;;;;;;5092760;28;20199;-66
2024/01/05 07:26:30;;;;;;;14.23;4.65;;;;;;;;;;5092386;28;20250;-66
2024/01/05 07:29:00;;;;;;;14.35;7.80;;;;;;;;;;5092251;28;20662;-66
2024/01/05 07:31:28;;;;;;;26.10;12.95;;;;;;;;;;5090379;28;20573;-67
2024/01/05 07:33:59;;;;;;;15.95;7.50;;;;;;;;;;5091942;28;20665;-66
2024/01/05 07:36:29;;;;;;;11.48;5.63;;;;;;;;;;5092212;28;20206;-66
2024/01/05 07:38:59;;;;;;;10.15;5.40;;;;;;;;;;5092898;28;20218;-65
2024/01/05 07:41:27;;;;;;;9.88;4.53;;;;;;;;;;5092451;28;20231;-66
2024/01/05 07:43:55;;;;;;;6.60;4.60;;;;;;;;;;5077818;28;20222;-66
2024/01/05 07:46:26;;;;;;;5.57;3.65;;;;;;;;;;5092177;28;20203;-66
2024/01/05 07:48:55;;;;;;;8.63;3.80;;;;;;;;;;5082412;28;20194;-67
2024/01/05 07:51:23;;;;;;;10.60;4.45;;;;;;;;;;5087952;28;20206;-67
2024/01/05 07:53:53;;;;;;;6.20;3.63;;;;;;;;;;5087869;28;20230;-66
2024/01/05 07:56:21;;;;;;;10.60;5.28;;;;;;;;;;5091908;28;20707;-67
2024/01/05 07:58:49;;;;;;;9.85;3.90;;;;;;;;;;5091261;28;20211;-66
2024/01/05 08:01:18;;;;;;;11.20;3.88;;;;;;;;;;5083657;28;20236;-65
2024/01/05 08:03:46;;;;;;;8.93;4.40;;;;;;;;;;5087264;28;20587;-64
2024/01/05 08:06:15;;;;;;;7.90;3.90;;;;;;;;;;5069786;28;20203;-64
2024/01/05 08:08:45;;;;;;;4.53;2.72;;;;;;;;;;5090968;28;20195;-64
2024/01/05 08:11:15;;;;;;;8.90;3.35;;;;;;;;;;5090876;28;20207;-64
2024/01/05 08:13:43;;;;;;;10.07;3.10;;;;;;;;;;5092026;28;20191;-64
2024/01/05 08:16:12;;;;;;;5.32;2.55;;;;;;;;;;5091628;28;20199;-65
2024/01/05 08:18:41;;;;;;;6.20;2.70;;;;;;;;;;5066286;28;20204;-65
2024/01/05 08:21:09;;;;;;;5.88;3.50;;;;;;;;;;5091841;28;20214;-65
2024/01/05 08:23:38;;;;;;;4.80;2.20;;;;;;;;;;5091194;28;20284;-64
2024/01/05 08:26:06;;;;;;;9.60;3.25;;;;;;;;;;5091337;28;20195;-64
2024/01/05 08:28:35;;;;;;;5.00;3.85;;;;;;;;;;5086589;28;20199;-66
2024/01/05 08:31:04;;;;;;;9.07;4.10;;;;;;;;;;5092141;28;20195;-66
2024/01/05 08:33:33;;;;;;;3.70;2.92;;;;;;;;;;5089821;28;20207;-65
2024/01/05 08:36:01;;;;;;;6.28;3.30;;;;;;;;;;5090917;28;20564;-65
2024/01/05 08:38:30;;;;;;;9.35;3.72;;;;;;;;;;5075129;28;20187;-65
2024/01/05 08:40:58;;;;;;;5.32;3.00;;;;;;;;;;5091265;28;20704;-65
2024/01/05 08:43:27;;;;;;;6.32;3.17;;;;;;;;;;5091033;28;20195;-65
2024/01/05 08:45:57;;;;;;;6.20;3.10;;;;;;;;;;5075153;28;20588;-65
2024/01/05 08:48:26;;;;;;;5.28;3.03;;;;;;;;;;5086385;28;20611;-64
2024/01/05 08:50:54;;;;;;;4.28;2.85;;;;;;;;;;5080207;28;20208;-66
2024/01/05 08:53:22;;;;;;;3.35;2.78;;;;;;;;;;5088086;28;20208;-66
2024/01/05 08:55:50;;;;;;;7.03;2.97;;;;;;;;;;5091236;28;20279;-65
2024/01/05 08:58:18;;;;;;;3.80;2.88;;;;;;;;;;5073567;28;20211;-66
2024/01/05 09:00:47;;;;;;;9.13;3.28;;;;;;;;;;5090641;28;20675;-66
2024/01/05 09:03:18;;;;;;;3.85;2.40;;;;;;;;;;5090500;28;20259;-65
2024/01/05 09:05:47;;;;;;;6.85;2.78;;;;;;;;;;5090340;28;20199;-66
2024/01/05 09:08:15;;;;;;;4.70;3.00;;;;;;;;;;5090392;28;20701;-65
2024/01/05 09:10:44;;;;;;;4.47;2.92;;;;;;;;;;5090671;28;20214;-65
2024/01/05 09:13:12;;;;;;;6.88;2.85;;;;;;;;;;5090771;28;20218;-66
2024/01/05 09:15:40;;;;;;;8.45;3.00;;;;;;;;;;5072728;28;20215;-67
2024/01/05 09:18:08;;;;;;;5.32;3.85;;;;;;;;;;5073323;28;20650;-67
2024/01/05 09:20:38;;;;;;;3.25;2.85;;;;;;;;;;5091873;28;20328;-66
2024/01/05 09:23:07;;;;;;;15.80;3.42;;;;;;;;;;5090994;28;20206;-65
2024/01/05 09:25:35;;;;;;;2.40;2.20;;;;;;;;;;5073399;28;20278;-65
2024/01/05 09:28:06;;;;;;;3.85;2.90;;;;;;;;;;5090098;28;20199;-65
2024/01/05 09:30:34;;;;;;;5.68;3.00;;;;;;;;;;5091173;28;20204;-65
2024/01/05 09:33:03;;;;;;;4.55;2.20;;;;;;;;;;5085909;28;20203;-65
2024/01/05 09:35:32;;;;;;;5.85;2.53;;;;;;;;;;5075938;28;20214;-67
2024/01/05 09:38:21;;;;;;;8.32;2.83;;;;;;;;;;5071033;28;20192;-66
2024/01/05 09:41:12;;;;;;;5.40;2.67;;;;;;;;;;5066588;28;20328;-66
2024/01/05 09:44:02;;;;;;;6.53;3.00;;;;;;;;;;5072429;28;20584;-66
2024/01/05 09:46:51;;;;;;;6.85;2.67;;;;;;;;;;5069752;28;20199;-65
2024/01/05 09:49:44;;;;;;;8.15;3.22;;;;;;;;;;5071610;28;20191;-66
2024/01/05 09:52:32;;;;;;;2.65;2.17;;;;;;;;;;5053083;28;20199;-66
2024/01/05 09:55:22;;;;;;;4.45;2.92;;;;;;;;;;5052794;28;20562;-66
2024/01/05 09:58:10;;;;;;;7.00;3.20;;;;;;;;;;5081416;28;20195;-66
2024/01/05 10:00:59;;;;;;;5.88;3.10;;;;;;;;;;5092315;28;20742;-66
2024/01/05 10:03:50;;;;;;;9.00;3.35;;;;;;;;;;5079449;28;20201;-65
2024/01/05 10:06:39;;;;;;;4.80;2.67;;;;;;;;;;5078350;28;20188;-66
2024/01/05 10:09:27;;;;;;;2.20;2.00;;;;;;;;;;5064600;28;20187;-66
2024/01/05 10:12:17;;;;;;;5.10;2.40;;;;;;;;;;5065193;28;20637;-66
2024/01/05 10:15:06;;;;;;;3.83;2.15;;;;;;;;;;5108135;28;20207;-65
2024/01/05 10:17:54;;;;;;;4.20;2.08;;;;;;;;;;5077066;28;20255;-66
2024/01/05 10:20:42;;;;;;;3.03;2.40;;;;;;;;;;5073853;28;20187;-66
2024/01/05 10:23:31;;;;;;;5.90;2.00;;;;;;;;;;5070408;28;20202;-68
2024/01/05 10:26:19;;;;;;;7.38;2.78;;;;;;;;;;5079136;28;20188;-67
2024/01/05 10:29:14;;;;;;;4.10;2.90;;;;;;;;;;5078435;28;20221;-67
2024/01/05 10:32:13;;;;;;;6.13;2.10;;;;;;;;;;5076059;28;20680;-69
2024/01/05 10:35:03;;;;;;;6.68;2.47;;;;;;;;;;5079708;28;20248;-68
2024/01/05 10:38:04;;;;;;;3.10;2.08;;;;;;;;;;5067490;28;20192;-68
2024/01/05 10:40:52;;;;;;;5.95;2.30;;;;;;;;;;5075744;28;20236;-66
2024/01/05 10:43:41;;;;;;;4.07;2.03;;;;;;;;;;5075114;28;20218;-66
2024/01/05 10:46:33;;;;;;;2.88;1.70;;;;;;;;;;5062000;28;20256;-65
2024/01/05 10:49:21;;;;;;;3.80;2.08;;;;;;;;;;5077137;28;20201;-66
2024/01/05 10:52:09;;;;;;;5.00;2.15;;;;;;;;;;5081409;28;20188;-66
2024/01/05 10:55:02;;;;;;;1.97;1.70;;;;;;;;;;5078463;28;20211;-66
2024/01/05 10:57:51;;;;;;;4.90;2.15;;;;;;;;;;5078126;28;20624;-65
2024/01/05 11:00:39;;;;;;;6.95;2.10;;;;;;;;;;5078409;28;20191;-66
2024/01/05 11:03:34;;;;;;;2.45;2.13;;;;;;;;;;5077382;28;20640;-66
2024/01/05 11:06:22;;;;;;;3.50;2.40;;;;;;;;;;5073792;28;20203;-67
2024/01/05 11:09:14;;;;;;;3.20;1.60;;;;;;;;;;5079112;28;20666;-68
2024/01/05 11:12:09;;;;;;;3.90;2.37;;;;;;;;;;5058943;28;20609;-68
2024/01/05 11:15:07;;;;;;;5.00;2.47;;;;;;;;;;5077466;28;20709;-68
2024/01/05 11:18:25;;;;;;;4.53;2.50;;;;;;;;;;5074503;28;20674;-69
2024/01/05 11:21:15;;;;;;;6.70;2.23;;;;;;;;;;5016596;28;20653;-68
2024/01/05 11:24:04;;;;;;;2.27;2.03;;;;;;;;;;5078964;28;20645;-68
2024/01/05 11:26:52;;;;;;;2.83;2.27;;;;;;;;;;5084039;28;20952;-68
2024/01/05 11:29:50;;;;;;;3.27;1.73;;;;;;;;;;5092707;28;20722;-69
2024/01/05 11:32:39;;;;;;;1.73;1.63;;;;;;;;;;5092420;28;20761;-69
2024/01/05 11:35:43;;;;;;;3.30;2.60;;;;;;;;;;5092110;28;20194;-70
2024/01/05 11:38:33;;;;;;;2.30;1.88;;;;;;;;;;5084635;28;20259;-68
2024/01/05 11:41:22;;;;;;;3.23;2.10;;;;;;;;;;5073529;28;20291;-68
2024/01/05 11:44:25;;;;;;;3.40;2.47;;;;;;;;;;5078143;28;20667;-69
2024/01/05 11:47:33;;;;;;;5.13;2.00;;;;;;;;;;5069544;28;20589;-68
2024/01/05 11:50:24;;;;;;;6.10;2.03;;;;;;;;;;5077370;28;20951;-69
2024/01/05 11:53:14;;;;;;;3.97;2.40;;;;;;;;;;5076893;28;20594;-68
2024/01/05 11:56:07;;;;;;;4.80;1.80;;;;;;;;;;5080122;28;20646;-69
2024/01/05 11:58:55;;;;;;;3.80;2.00;;;;;;;;;;5062327;28;20971;-68
2024/01/05 12:01:43;;;;;;;4.13;2.00;;;;;;;;;;5076527;28;20547;-68
2024/01/05 12:04:46;;;;;;;5.68;2.05;;;;;;;;;;5058205;28;20202;-69
2024/01/05 12:07:34;;;;;;;2.83;1.98;;;;;;;;;;5075321;28;20266;-69
2024/01/05 12:10:24;;;;;;;4.73;2.20;;;;;;;;;;5068434;28;20251;-69
2024/01/05 12:13:13;;;;;;;4.60;2.00;;;;;;;;;;5076675;28;20609;-68
2024/01/05 12:16:02;;;;;;;3.57;2.40;;;;;;;;;;5078276;28;20721;-69
2024/01/05 12:18:52;;;;;;;2.13;1.73;;;;;;;;;;5076904;28;20641;-68
2024/01/05 12:21:40;;;;;;;2.27;2.10;;;;;;;;;;5073987;28;20605;-69
2024/01/05 12:24:28;;;;;;;6.65;2.25;;;;;;;;;;5072607;28;20593;-69
2024/01/05 12:27:16;;;;;;;2.73;1.70;;;;;;;;;;5077250;28;20202;-68
2024/01/05 12:30:06;;;;;;;4.30;1.97;;;;;;;;;;5076458;28;21061;-69
2024/01/05 12:32:55;;;;;;;2.00;1.80;;;;;;;;;;5073551;28;20682;-69
2024/01/05 12:35:43;;;;;;;4.70;2.23;;;;;;;;;;5076865;28;20625;-68
2024/01/05 12:38:31;;;;;;;7.13;2.30;;;;;;;;;;5077328;28;20577;-68
2024/01/05 12:41:20;;;;;;;3.73;2.27;;;;;;;;;;5077836;28;20637;-69
2024/01/05 12:44:10;;;;;;;2.93;1.90;;;;;;;;;;5074641;28;20629;-68
2024/01/05 12:47:07;;;;;;;5.43;2.50;;;;;;;;;;5069590;28;21042;-68
2024/01/05 12:49:55;;;;;;;4.93;2.23;;;;;;;;;;5073082;28;20662;-68
2024/01/05 12:52:43;;;;;;;2.43;2.00;;;;;;;;;;5074090;28;20624;-68
2024/01/05 12:55:32;;;;;;;2.90;2.30;;;;;;;;;;5073915;28;20598;-69
2024/01/05 12:58:20;;;;;;;6.00;2.37;;;;;;;;;;5053509;28;20577;-68
2024/01/05 13:01:08;;;;;;;2.13;1.93;;;;;;;;;;5053764;28;20578;-68
2024/01/05 13:03:59;;;;;;;2.07;1.97;;;;;;;;;;5065113;28;20650;-68
2024/01/05 13:06:48;;;;;;;2.57;2.37;;;;;;;;;;5086009;28;20601;-67
2024/01/05 13:09:36;;;;;;;3.20;2.60;;;;;;;;;;5065319;28;20604;-69
2024/01/05 13:12:26;;;;;;;3.20;2.70;;;;;;;;;;5073373;28;20582;-69
2024/01/05 13:15:14;;;;;;;5.13;4.83;;;;;;;;;;5072672;28;20600;-69
2024/01/05 13:18:03;;;;;;;4.80;4.50;;;;;;;;;;5073136;28;20636;-69
2024/01/05 13:20:53;;;;;;;5.10;3.90;;;;;;;;;;5069413;28;21020;-69
2024/01/05 13:23:42;;;;;;;4.53;4.23;;;;;;;;;;5061087;28;20598;-68
2024/01/05 13:26:30;;;;;;;5.87;4.33;;;;;;;;;;5075508;28;20600;-66
2024/01/05 13:29:18;;;;;;;3.40;3.20;;;;;;;;;;5074069;28;20616;-65
2024/01/05 13:32:06;;;;;;;5.37;3.23;;;;;;;;;;5055519;28;20597;-65
2024/01/05 13:34:54;;;;;;;4.40;2.60;;;;;;;;;;5074388;28;21141;-66
2024/01/05 13:37:44;;;;;;;3.03;2.77;;;;;;;;;;5075242;28;20637;-65
2024/01/05 13:40:32;;;;;;;3.30;2.70;;;;;;;;;;5054837;28;20641;-66
2024/01/05 13:43:20;;;;;;;3.03;2.60;;;;;;;;;;5065551;28;20579;-65
2024/01/05 13:46:09;;;;;;;7.70;3.00;;;;;;;;;;5073976;28;20619;-65
2024/01/05 13:48:57;;;;;;;4.77;3.00;;;;;;;;;;5065903;28;20692;-65
2024/01/05 13:51:45;;;;;;;2.70;2.50;;;;;;;;;;5075452;28;20688;-65
2024/01/05 13:54:35;;;;;;;3.40;2.60;;;;;;;;;;5075629;28;20597;-65
2024/01/05 13:57:23;;;;;;;4.03;2.60;;;;;;;;;;5074343;28;20645;-65
2024/01/05 14:00:12;;;;;;;2.65;2.55;;;;;;;;;;5075337;28;20609;-65
2024/01/05 14:03:00;;;;;;;2.45;2.25;;;;;;;;;;5073841;28;20195;-66
2024/01/05 14:05:48;;;;;;;3.27;2.50;;;;;;;;;;5073460;28;20741;-66
2024/01/05 14:08:37;;;;;;;3.45;2.50;;;;;;;;;;5066038;28;20943;-65
2024/01/05 14:11:26;;;;;;;7.50;2.75;;;;;;;;;;5075256;28;20195;-65
2024/01/05 14:14:15;;;;;;;7.93;2.50;;;;;;;;;;5074327;28;20195;-65
2024/01/05 14:17:03;;;;;;;2.97;2.60;;;;;;;;;;5074991;28;20207;-65
2024/01/05 14:19:52;;;;;;;3.10;2.70;;;;;;;;;;5068350;28;20201;-66
2024/01/05 14:22:40;;;;;;;5.73;2.40;;;;;;;;;;5071143;28;20682;-65
2024/01/05 14:25:33;;;;;;;4.50;2.60;;;;;;;;;;5060609;28;20610;-65
2024/01/05 14:28:23;;;;;;;3.35;2.55;;;;;;;;;;5075353;28;20597;-65
2024/01/05 14:31:11;;;;;;;3.03;2.20;;;;;;;;;;5054920;28;20216;-66
2024/01/05 14:34:00;;;;;;;2.30;1.90;;;;;;;;;;5074231;28;20191;-65
2024/01/05 14:36:48;;;;;;;2.15;2.05;;;;;;;;;;5077083;28;20211;-65
2024/01/05 14:39:36;;;;;;;3.15;2.40;;;;;;;;;;5057902;28;20266;-65
2024/01/05 14:42:24;;;;;;;3.00;2.30;;;;;;;;;;5073078;28;20197;-65
2024/01/05 14:45:14;;;;;;;2.90;2.70;;;;;;;;;;5067602;28;20224;-65
2024/01/05 14:48:04;;;;;;;5.53;2.33;;;;;;;;;;5055208;28;20195;-65
2024/01/05 14:50:53;;;;;;;6.20;1.97;;;;;;;;;;5080846;28;20201;-65
2024/01/05 14:53:42;;;;;;;4.40;2.72;;;;;;;;;;5080643;28;21027;-65
2024/01/05 14:56:30;;;;;;;2.70;2.20;;;;;;;;;;5080850;28;20199;-65
2024/01/05 14:59:18;;;;;;;3.95;2.15;;;;;;;;;;5080712;28;20195;-65
2024/01/05 15:02:08;;;;;;;3.35;2.13;;;;;;;;;;5080110;28;20215;-65
2024/01/05 15:04:56;;;;;;;4.60;2.10;;;;;;;;;;5079407;28;20202;-64
2024/01/05 15:07:44;;;;;;;2.45;2.10;;;;;;;;;;5078947;28;20209;-65
2024/01/05 15:10:33;;;;;;;2.45;1.70;;;;;;;;;;5080746;28;20188;-65
2024/01/05 15:13:21;;;;;;;2.05;1.85;;;;;;;;;;5076885;28;20569;-65
2024/01/05 15:16:09;;;;;;;2.75;2.55;;;;;;;;;;5081195;28;20179;-66
2024/01/05 15:18:59;;;;;;;3.67;2.30;;;;;;;;;;5076634;28;20203;-65
2024/01/05 15:21:47;;;;;;;3.50;2.20;;;;;;;;;;5080415;28;20191;-66
2024/01/05 15:24:38;;;;;;;2.38;2.05;;;;;;;;;;5074580;28;20613;-66
2024/01/05 15:27:26;;;;;;;9.73;1.98;;;;;;;;;;5079570;28;20209;-65
2024/01/05 15:30:16;;;;;;;2.72;2.05;;;;;;;;;;5079693;28;20195;-65